sensor_id;sensor_type;location;lat;lon;timestamp;P1;durP1;ratioP1;P2;durP2;ratioP2
24635;SDS011;12772;49.794;10.024;2023-03-11T00:01:09;1.25;;;1.25;;
24635;SDS011;12772;49.794;10.024;2023-03-11T00:05:13;1.40;;;1.30;;
24635;SDS011;12772;49.794;10.024;2023-03-11T00:09:18;1.35;;;1.25;;
24635;SDS011;12772;49.794;10.024;2023-03-11T00:13:20;1.45;;;1.35;;
24635;SDS011;12772;49.794;10.024;2023-03-11T00:17:22;1.38;;;1.27;;
24635;SDS011;12772;49.794;10.024;2023-03-11T00:21:24;1.42;;;1.27;;
24635;SDS011;12772;49.794;10.024;2023-03-11T00:25:27;1.17;;;1.17;;
24635;SDS011;12772;49.794;10.024;2023-03-11T00:29:30;2.17;;;1.30;;
24635;SDS011;12772;49.794;10.024;2023-03-11T00:33:33;1.23;;;1.10;;
24635;SDS011;12772;49.794;10.024;2023-03-11T00:37:35;1.02;;;1.02;;
24635;SDS011;12772;49.794;10.024;2023-03-11T00:41:37;2.47;;;1.00;;
24635;SDS011;12772;49.794;10.024;2023-03-11T00:45:39;0.95;;;0.95;;
24635;SDS011;12772;49.794;10.024;2023-03-11T00:49:41;1.10;;;1.10;;
24635;SDS011;12772;49.794;10.024;2023-03-11T00:53:44;1.20;;;1.20;;
24635;SDS011;12772;49.794;10.024;2023-03-11T00:57:46;1.20;;;1.15;;
24635;SDS011;12772;49.794;10.024;2023-03-11T01:01:51;1.10;;;1.10;;
24635;SDS011;12772;49.794;10.024;2023-03-11T01:05:53;1.05;;;1.05;;
24635;SDS011;12772;49.794;10.024;2023-03-11T01:09:55;1.45;;;1.35;;
24635;SDS011;12772;49.794;10.024;2023-03-11T01:13:57;1.23;;;1.20;;
24635;SDS011;12772;49.794;10.024;2023-03-11T01:17:59;1.08;;;1.08;;
24635;SDS011;12772;49.794;10.024;2023-03-11T01:22:02;1.77;;;1.33;;
24635;SDS011;12772;49.794;10.024;2023-03-11T01:26:05;1.35;;;1.25;;
24635;SDS011;12772;49.794;10.024;2023-03-11T01:30:07;1.50;;;1.40;;
24635;SDS011;12772;49.794;10.024;2023-03-11T01:34:10;1.10;;;1.10;;
24635;SDS011;12772;49.794;10.024;2023-03-11T01:38:13;1.42;;;1.20;;
24635;SDS011;12772;49.794;10.024;2023-03-11T01:42:15;0.98;;;0.98;;
24635;SDS011;12772;49.794;10.024;2023-03-11T01:50:21;1.23;;;1.23;;
24635;SDS011;12772;49.794;10.024;2023-03-11T01:54:27;1.42;;;1.33;;
24635;SDS011;12772;49.794;10.024;2023-03-11T01:58:33;1.00;;;1.00;;
24635;SDS011;12772;49.794;10.024;2023-03-11T02:02:47;1.20;;;1.20;;
24635;SDS011;12772;49.794;10.024;2023-03-11T02:06:52;1.58;;;1.48;;
24635;SDS011;12772;49.794;10.024;2023-03-11T02:10:54;2.55;;;1.35;;
24635;SDS011;12772;49.794;10.024;2023-03-11T02:14:57;1.73;;;1.35;;
24635;SDS011;12772;49.794;10.024;2023-03-11T02:19:08;1.30;;;1.20;;
24635;SDS011;12772;49.794;10.024;2023-03-11T02:23:25;1.50;;;1.40;;
24635;SDS011;12772;49.794;10.024;2023-03-11T02:27:40;1.02;;;1.02;;
24635;SDS011;12772;49.794;10.024;2023-03-11T02:31:46;1.50;;;1.40;;
24635;SDS011;12772;49.794;10.024;2023-03-11T02:35:50;2.05;;;1.35;;
24635;SDS011;12772;49.794;10.024;2023-03-11T02:39:52;1.20;;;1.10;;
24635;SDS011;12772;49.794;10.024;2023-03-11T02:43:55;1.15;;;1.15;;
24635;SDS011;12772;49.794;10.024;2023-03-11T02:47:59;1.40;;;1.30;;
24635;SDS011;12772;49.794;10.024;2023-03-11T02:52:01;1.10;;;1.10;;
24635;SDS011;12772;49.794;10.024;2023-03-11T02:56:04;1.40;;;1.30;;
24635;SDS011;12772;49.794;10.024;2023-03-11T03:00:07;1.30;;;1.20;;
24635;SDS011;12772;49.794;10.024;2023-03-11T03:04:14;1.38;;;1.25;;
24635;SDS011;12772;49.794;10.024;2023-03-11T03:08:16;1.17;;;1.10;;
24635;SDS011;12772;49.794;10.024;2023-03-11T03:12:18;1.30;;;1.05;;
24635;SDS011;12772;49.794;10.024;2023-03-11T03:16:20;1.10;;;1.10;;
24635;SDS011;12772;49.794;10.024;2023-03-11T03:20:22;4.60;;;1.08;;
24635;SDS011;12772;49.794;10.024;2023-03-11T03:24:25;1.80;;;1.33;;
24635;SDS011;12772;49.794;10.024;2023-03-11T03:28:27;2.00;;;1.00;;
24635;SDS011;12772;49.794;10.024;2023-03-11T03:32:30;1.40;;;1.15;;
24635;SDS011;12772;49.794;10.024;2023-03-11T03:36:32;1.65;;;1.23;;
24635;SDS011;12772;49.794;10.024;2023-03-11T03:40:34;1.95;;;1.10;;
24635;SDS011;12772;49.794;10.024;2023-03-11T03:44:36;1.55;;;1.45;;
24635;SDS011;12772;49.794;10.024;2023-03-11T03:48:38;2.13;;;1.30;;
24635;SDS011;12772;49.794;10.024;2023-03-11T03:52:40;1.35;;;1.08;;
24635;SDS011;12772;49.794;10.024;2023-03-11T03:56:42;1.48;;;1.20;;
24635;SDS011;12772;49.794;10.024;2023-03-11T04:00:44;2.17;;;1.33;;
24635;SDS011;12772;49.794;10.024;2023-03-11T04:04:47;1.48;;;1.10;;
24635;SDS011;12772;49.794;10.024;2023-03-11T04:08:49;2.30;;;1.13;;
24635;SDS011;12772;49.794;10.024;2023-03-11T04:12:52;2.22;;;1.10;;
24635;SDS011;12772;49.794;10.024;2023-03-11T04:16:54;1.65;;;1.15;;
24635;SDS011;12772;49.794;10.024;2023-03-11T04:20:57;1.00;;;1.00;;
24635;SDS011;12772;49.794;10.024;2023-03-11T04:24:59;1.50;;;1.40;;
24635;SDS011;12772;49.794;10.024;2023-03-11T04:29:01;1.13;;;1.10;;
24635;SDS011;12772;49.794;10.024;2023-03-11T04:33:03;1.27;;;1.10;;
24635;SDS011;12772;49.794;10.024;2023-03-11T04:37:05;1.70;;;1.10;;
24635;SDS011;12772;49.794;10.024;2023-03-11T04:41:07;3.78;;;1.50;;
24635;SDS011;12772;49.794;10.024;2023-03-11T04:45:09;5.40;;;1.40;;
24635;SDS011;12772;49.794;10.024;2023-03-11T04:49:12;1.50;;;1.30;;
24635;SDS011;12772;49.794;10.024;2023-03-11T04:53:14;2.17;;;1.30;;
24635;SDS011;12772;49.794;10.024;2023-03-11T04:57:16;2.67;;;1.25;;
24635;SDS011;12772;49.794;10.024;2023-03-11T05:01:19;1.10;;;1.10;;
24635;SDS011;12772;49.794;10.024;2023-03-11T05:05:21;3.97;;;1.48;;
24635;SDS011;12772;49.794;10.024;2023-03-11T05:09:23;4.75;;;1.35;;
24635;SDS011;12772;49.794;10.024;2023-03-11T05:13:25;1.40;;;1.30;;
24635;SDS011;12772;49.794;10.024;2023-03-11T05:17:27;2.45;;;1.38;;
24635;SDS011;12772;49.794;10.024;2023-03-11T05:21:29;2.67;;;1.70;;
24635;SDS011;12772;49.794;10.024;2023-03-11T05:25:31;2.08;;;1.42;;
24635;SDS011;12772;49.794;10.024;2023-03-11T05:29:34;2.38;;;1.30;;
24635;SDS011;12772;49.794;10.024;2023-03-11T05:33:37;1.60;;;1.50;;
24635;SDS011;12772;49.794;10.024;2023-03-11T05:37:39;2.05;;;1.48;;
24635;SDS011;12772;49.794;10.024;2023-03-11T05:41:41;1.73;;;1.60;;
24635;SDS011;12772;49.794;10.024;2023-03-11T05:45:43;3.72;;;1.52;;
24635;SDS011;12772;49.794;10.024;2023-03-11T05:49:46;3.75;;;1.83;;
24635;SDS011;12772;49.794;10.024;2023-03-11T05:53:49;2.17;;;1.92;;
24635;SDS011;12772;49.794;10.024;2023-03-11T05:57:51;3.63;;;1.95;;
24635;SDS011;12772;49.794;10.024;2023-03-11T06:01:54;2.10;;;1.63;;
24635;SDS011;12772;49.794;10.024;2023-03-11T06:05:56;2.50;;;1.70;;
24635;SDS011;12772;49.794;10.024;2023-03-11T06:09:58;1.77;;;1.45;;
24635;SDS011;12772;49.794;10.024;2023-03-11T06:14:00;2.17;;;1.35;;
24635;SDS011;12772;49.794;10.024;2023-03-11T06:18:02;1.58;;;1.48;;
24635;SDS011;12772;49.794;10.024;2023-03-11T06:22:05;3.17;;;1.70;;
24635;SDS011;12772;49.794;10.024;2023-03-11T06:26:08;1.58;;;1.48;;
24635;SDS011;12772;49.794;10.024;2023-03-11T06:30:14;2.70;;;1.80;;
24635;SDS011;12772;49.794;10.024;2023-03-11T06:34:16;3.85;;;1.73;;
24635;SDS011;12772;49.794;10.024;2023-03-11T06:38:19;3.75;;;2.00;;
24635;SDS011;12772;49.794;10.024;2023-03-11T06:42:22;2.10;;;1.92;;
24635;SDS011;12772;49.794;10.024;2023-03-11T06:46:25;3.55;;;2.10;;
24635;SDS011;12772;49.794;10.024;2023-03-11T06:50:28;2.50;;;1.70;;
24635;SDS011;12772;49.794;10.024;2023-03-11T06:54:30;2.13;;;2.00;;
24635;SDS011;12772;49.794;10.024;2023-03-11T06:58:33;3.60;;;2.45;;
24635;SDS011;12772;49.794;10.024;2023-03-11T07:02:36;2.35;;;1.63;;
24635;SDS011;12772;49.794;10.024;2023-03-11T07:06:40;2.33;;;2.13;;
24635;SDS011;12772;49.794;10.024;2023-03-11T07:10:43;3.17;;;1.88;;
24635;SDS011;12772;49.794;10.024;2023-03-11T07:14:45;3.15;;;2.30;;
24635;SDS011;12772;49.794;10.024;2023-03-11T07:18:49;1.98;;;1.88;;
24635;SDS011;12772;49.794;10.024;2023-03-11T07:22:52;2.28;;;1.90;;
24635;SDS011;12772;49.794;10.024;2023-03-11T07:27:04;2.45;;;1.70;;
24635;SDS011;12772;49.794;10.024;2023-03-11T07:31:16;3.35;;;2.45;;
24635;SDS011;12772;49.794;10.024;2023-03-11T07:35:20;2.90;;;1.50;;
24635;SDS011;12772;49.794;10.024;2023-03-11T07:39:22;1.90;;;1.70;;
24635;SDS011;12772;49.794;10.024;2023-03-11T07:43:24;2.15;;;1.90;;
24635;SDS011;12772;49.794;10.024;2023-03-11T07:47:27;2.17;;;1.80;;
24635;SDS011;12772;49.794;10.024;2023-03-11T07:51:30;3.20;;;1.77;;
24635;SDS011;12772;49.794;10.024;2023-03-11T07:55:34;1.63;;;1.52;;
24635;SDS011;12772;49.794;10.024;2023-03-11T07:59:36;2.58;;;1.85;;
24635;SDS011;12772;49.794;10.024;2023-03-11T08:03:38;2.05;;;1.70;;
24635;SDS011;12772;49.794;10.024;2023-03-11T08:07:40;1.73;;;1.58;;
24635;SDS011;12772;49.794;10.024;2023-03-11T08:11:42;2.05;;;1.60;;
24635;SDS011;12772;49.794;10.024;2023-03-11T08:15:44;2.67;;;1.60;;
24635;SDS011;12772;49.794;10.024;2023-03-11T08:19:48;5.35;;;1.90;;
24635;SDS011;12772;49.794;10.024;2023-03-11T08:23:51;3.63;;;1.85;;
24635;SDS011;12772;49.794;10.024;2023-03-11T08:27:57;2.95;;;1.85;;
24635;SDS011;12772;49.794;10.024;2023-03-11T08:31:59;4.82;;;1.88;;
24635;SDS011;12772;49.794;10.024;2023-03-11T08:36:03;4.53;;;1.67;;
24635;SDS011;12772;49.794;10.024;2023-03-11T08:40:05;1.60;;;1.50;;
24635;SDS011;12772;49.794;10.024;2023-03-11T08:44:09;3.00;;;1.60;;
24635;SDS011;12772;49.794;10.024;2023-03-11T08:48:12;2.35;;;1.67;;
24635;SDS011;12772;49.794;10.024;2023-03-11T08:52:14;1.77;;;1.67;;
24635;SDS011;12772;49.794;10.024;2023-03-11T08:56:16;2.45;;;1.60;;
24635;SDS011;12772;49.794;10.024;2023-03-11T09:00:18;3.13;;;1.60;;
24635;SDS011;12772;49.794;10.024;2023-03-11T09:04:21;3.33;;;1.67;;
24635;SDS011;12772;49.794;10.024;2023-03-11T09:08:23;2.67;;;1.90;;
24635;SDS011;12772;49.794;10.024;2023-03-11T09:12:25;2.25;;;1.77;;
24635;SDS011;12772;49.794;10.024;2023-03-11T09:16:28;1.30;;;1.30;;
24635;SDS011;12772;49.794;10.024;2023-03-11T09:20:30;1.70;;;1.60;;
24635;SDS011;12772;49.794;10.024;2023-03-11T09:24:32;2.70;;;1.55;;
24635;SDS011;12772;49.794;10.024;2023-03-11T09:28:35;1.88;;;1.73;;
24635;SDS011;12772;49.794;10.024;2023-03-11T09:32:37;5.40;;;1.35;;
24635;SDS011;12772;49.794;10.024;2023-03-11T09:36:40;2.97;;;1.30;;
24635;SDS011;12772;49.794;10.024;2023-03-11T09:45:03;3.17;;;1.50;;
24635;SDS011;12772;49.794;10.024;2023-03-11T09:49:31;2.15;;;1.63;;
24635;SDS011;12772;49.794;10.024;2023-03-11T09:53:55;3.00;;;1.30;;
24635;SDS011;12772;49.794;10.024;2023-03-11T09:58:12;5.85;;;1.70;;
24635;SDS011;12772;49.794;10.024;2023-03-11T10:02:38;1.90;;;1.50;;
24635;SDS011;12772;49.794;10.024;2023-03-11T10:06:44;2.65;;;1.73;;
24635;SDS011;12772;49.794;10.024;2023-03-11T10:10:54;4.00;;;1.38;;
24635;SDS011;12772;49.794;10.024;2023-03-11T10:29:06;3.10;;;2.13;;
24635;SDS011;12772;49.794;10.024;2023-03-11T10:33:25;3.92;;;1.77;;
24635;SDS011;12772;49.794;10.024;2023-03-11T10:37:33;1.60;;;1.50;;
24635;SDS011;12772;49.794;10.024;2023-03-11T10:41:43;1.63;;;1.52;;
24635;SDS011;12772;49.794;10.024;2023-03-11T10:45:53;1.63;;;1.52;;
24635;SDS011;12772;49.794;10.024;2023-03-11T10:49:55;1.58;;;1.40;;
24635;SDS011;12772;49.794;10.024;2023-03-11T10:53:58;1.70;;;1.38;;
24635;SDS011;12772;49.794;10.024;2023-03-11T10:58:05;1.80;;;1.70;;
24635;SDS011;12772;49.794;10.024;2023-03-11T11:06:30;2.22;;;1.80;;
24635;SDS011;12772;49.794;10.024;2023-03-11T11:10:34;1.83;;;1.65;;
24635;SDS011;12772;49.794;10.024;2023-03-11T11:14:41;1.77;;;1.42;;
24635;SDS011;12772;49.794;10.024;2023-03-11T11:18:58;1.95;;;1.30;;
24635;SDS011;12772;49.794;10.024;2023-03-11T11:23:09;2.83;;;1.50;;
24635;SDS011;12772;49.794;10.024;2023-03-11T11:27:31;6.10;;;1.60;;
24635;SDS011;12772;49.794;10.024;2023-03-11T11:31:33;2.05;;;1.50;;
24635;SDS011;12772;49.794;10.024;2023-03-11T11:35:47;4.00;;;2.03;;
24635;SDS011;12772;49.794;10.024;2023-03-11T11:39:57;3.58;;;1.98;;
24635;SDS011;12772;49.794;10.024;2023-03-11T11:44:11;3.72;;;1.42;;
24635;SDS011;12772;49.794;10.024;2023-03-11T11:48:21;4.38;;;1.88;;
24635;SDS011;12772;49.794;10.024;2023-03-11T11:52:48;3.92;;;1.95;;
24635;SDS011;12772;49.794;10.024;2023-03-11T11:56:55;3.65;;;1.98;;
24635;SDS011;12772;49.794;10.024;2023-03-11T12:05:26;8.88;;;2.72;;
24635;SDS011;12772;49.794;10.024;2023-03-11T12:09:37;2.53;;;1.70;;
24635;SDS011;12772;49.794;10.024;2023-03-11T12:18:18;3.35;;;1.67;;
24635;SDS011;12772;49.794;10.024;2023-03-11T12:27:14;2.17;;;2.00;;
24635;SDS011;12772;49.794;10.024;2023-03-11T12:31:42;3.65;;;1.85;;
24635;SDS011;12772;49.794;10.024;2023-03-11T12:35:47;3.70;;;1.50;;
24635;SDS011;12772;49.794;10.024;2023-03-11T12:39:53;2.50;;;1.38;;
24635;SDS011;12772;49.794;10.024;2023-03-11T12:43:57;1.70;;;1.40;;
24635;SDS011;12772;49.794;10.024;2023-03-11T12:52:29;3.63;;;1.95;;
24635;SDS011;12772;49.794;10.024;2023-03-11T12:56:43;1.73;;;1.63;;
24635;SDS011;12772;49.794;10.024;2023-03-11T13:00:53;3.88;;;2.35;;
24635;SDS011;12772;49.794;10.024;2023-03-11T13:18:16;2.38;;;2.05;;
24635;SDS011;12772;49.794;10.024;2023-03-11T13:22:45;3.15;;;2.88;;
24635;SDS011;12772;49.794;10.024;2023-03-11T13:27:17;2.95;;;2.38;;
24635;SDS011;12772;49.794;10.024;2023-03-11T13:44:37;5.32;;;3.28;;
24635;SDS011;12772;49.794;10.024;2023-03-11T13:48:42;2.55;;;1.98;;
24635;SDS011;12772;49.794;10.024;2023-03-11T13:52:48;3.05;;;2.38;;
24635;SDS011;12772;49.794;10.024;2023-03-11T13:56:55;4.28;;;2.78;;
24635;SDS011;12772;49.794;10.024;2023-03-11T14:01:02;4.18;;;2.00;;
24635;SDS011;12772;49.794;10.024;2023-03-11T14:05:05;3.63;;;2.28;;
24635;SDS011;12772;49.794;10.024;2023-03-11T14:09:14;4.57;;;2.35;;
24635;SDS011;12772;49.794;10.024;2023-03-11T14:13:21;7.45;;;2.80;;
24635;SDS011;12772;49.794;10.024;2023-03-11T14:17:24;7.25;;;2.55;;
24635;SDS011;12772;49.794;10.024;2023-03-11T14:21:26;6.72;;;2.15;;
24635;SDS011;12772;49.794;10.024;2023-03-11T14:25:29;6.85;;;2.25;;
24635;SDS011;12772;49.794;10.024;2023-03-11T14:29:32;3.15;;;1.83;;
24635;SDS011;12772;49.794;10.024;2023-03-11T14:33:41;4.82;;;1.90;;
24635;SDS011;12772;49.794;10.024;2023-03-11T14:37:43;3.55;;;2.00;;
24635;SDS011;12772;49.794;10.024;2023-03-11T14:41:45;2.17;;;1.80;;
24635;SDS011;12772;49.794;10.024;2023-03-11T14:45:48;2.95;;;1.70;;
24635;SDS011;12772;49.794;10.024;2023-03-11T14:49:52;9.82;;;5.13;;
24635;SDS011;12772;49.794;10.024;2023-03-11T14:54:01;2.78;;;2.13;;
24635;SDS011;12772;49.794;10.024;2023-03-11T15:02:37;3.47;;;2.17;;
24635;SDS011;12772;49.794;10.024;2023-03-11T15:06:44;2.50;;;2.30;;
24635;SDS011;12772;49.794;10.024;2023-03-11T15:15:44;2.33;;;1.95;;
24635;SDS011;12772;49.794;10.024;2023-03-11T15:19:39;3.90;;;2.40;;
24635;SDS011;12772;49.794;10.024;2023-03-11T15:23:45;6.10;;;3.28;;
24635;SDS011;12772;49.794;10.024;2023-03-11T15:28:42;4.45;;;2.20;;
24635;SDS011;12772;49.794;10.024;2023-03-11T15:32:39;3.72;;;2.35;;
24635;SDS011;12772;49.794;10.024;2023-03-11T15:36:44;2.53;;;1.90;;
24635;SDS011;12772;49.794;10.024;2023-03-11T15:41:02;3.40;;;2.10;;
24635;SDS011;12772;49.794;10.024;2023-03-11T15:45:08;2.03;;;1.60;;
24635;SDS011;12772;49.794;10.024;2023-03-11T15:49:18;3.55;;;2.13;;
24635;SDS011;12772;49.794;10.024;2023-03-11T15:53:21;4.07;;;2.00;;
24635;SDS011;12772;49.794;10.024;2023-03-11T15:57:26;3.30;;;2.08;;
24635;SDS011;12772;49.794;10.024;2023-03-11T16:01:29;3.92;;;2.28;;
24635;SDS011;12772;49.794;10.024;2023-03-11T16:05:31;2.85;;;1.83;;
24635;SDS011;12772;49.794;10.024;2023-03-11T16:09:33;2.50;;;1.90;;
24635;SDS011;12772;49.794;10.024;2023-03-11T16:13:35;6.18;;;1.98;;
24635;SDS011;12772;49.794;10.024;2023-03-11T16:17:38;4.60;;;2.67;;
24635;SDS011;12772;49.794;10.024;2023-03-11T16:21:43;3.92;;;2.35;;
24635;SDS011;12772;49.794;10.024;2023-03-11T16:25:49;3.15;;;2.17;;
24635;SDS011;12772;49.794;10.024;2023-03-11T16:30:00;4.60;;;2.47;;
24635;SDS011;12772;49.794;10.024;2023-03-11T16:34:02;3.40;;;2.25;;
24635;SDS011;12772;49.794;10.024;2023-03-11T16:38:05;3.55;;;2.50;;
24635;SDS011;12772;49.794;10.024;2023-03-11T16:42:08;3.97;;;2.45;;
24635;SDS011;12772;49.794;10.024;2023-03-11T16:46:10;2.22;;;1.83;;
24635;SDS011;12772;49.794;10.024;2023-03-11T16:50:13;5.25;;;2.60;;
24635;SDS011;12772;49.794;10.024;2023-03-11T16:54:15;3.88;;;2.90;;
24635;SDS011;12772;49.794;10.024;2023-03-11T16:58:17;2.65;;;2.22;;
24635;SDS011;12772;49.794;10.024;2023-03-11T17:02:19;3.03;;;2.38;;
24635;SDS011;12772;49.794;10.024;2023-03-11T17:06:22;2.63;;;2.42;;
24635;SDS011;12772;49.794;10.024;2023-03-11T17:10:24;9.80;;;8.90;;
24635;SDS011;12772;49.794;10.024;2023-03-11T17:14:27;12.60;;;4.75;;
24635;SDS011;12772;49.794;10.024;2023-03-11T17:18:29;5.93;;;3.30;;
24635;SDS011;12772;49.794;10.024;2023-03-11T17:22:31;7.90;;;3.95;;
24635;SDS011;12772;49.794;10.024;2023-03-11T17:26:34;7.80;;;4.03;;
24635;SDS011;12772;49.794;10.024;2023-03-11T17:30:40;5.15;;;3.58;;
24635;SDS011;12772;49.794;10.024;2023-03-11T17:34:45;6.35;;;3.97;;
24635;SDS011;12772;49.794;10.024;2023-03-11T17:38:50;4.22;;;3.22;;
24635;SDS011;12772;49.794;10.024;2023-03-11T17:42:55;4.93;;;2.70;;
24635;SDS011;12772;49.794;10.024;2023-03-11T17:46:57;3.58;;;2.80;;
24635;SDS011;12772;49.794;10.024;2023-03-11T17:51:04;3.97;;;2.72;;
24635;SDS011;12772;49.794;10.024;2023-03-11T17:55:07;3.22;;;2.47;;
24635;SDS011;12772;49.794;10.024;2023-03-11T17:59:10;2.63;;;2.28;;
24635;SDS011;12772;49.794;10.024;2023-03-11T18:03:12;3.47;;;2.83;;
24635;SDS011;12772;49.794;10.024;2023-03-11T18:07:14;4.55;;;2.90;;
24635;SDS011;12772;49.794;10.024;2023-03-11T18:11:18;4.43;;;3.95;;
24635;SDS011;12772;49.794;10.024;2023-03-11T18:15:22;8.80;;;6.35;;
24635;SDS011;12772;49.794;10.024;2023-03-11T18:19:24;10.18;;;7.00;;
24635;SDS011;12772;49.794;10.024;2023-03-11T18:23:26;9.98;;;6.15;;
24635;SDS011;12772;49.794;10.024;2023-03-11T18:27:29;7.93;;;5.65;;
24635;SDS011;12772;49.794;10.024;2023-03-11T18:31:31;9.95;;;5.47;;
24635;SDS011;12772;49.794;10.024;2023-03-11T18:35:33;9.23;;;5.30;;
24635;SDS011;12772;49.794;10.024;2023-03-11T18:39:35;8.98;;;5.80;;
24635;SDS011;12772;49.794;10.024;2023-03-11T18:43:37;7.60;;;6.07;;
24635;SDS011;12772;49.794;10.024;2023-03-11T18:47:39;8.90;;;6.20;;
24635;SDS011;12772;49.794;10.024;2023-03-11T18:51:41;7.35;;;5.85;;
24635;SDS011;12772;49.794;10.024;2023-03-11T18:55:43;8.23;;;5.28;;
24635;SDS011;12772;49.794;10.024;2023-03-11T18:59:46;6.07;;;4.68;;
24635;SDS011;12772;49.794;10.024;2023-03-11T19:03:57;6.03;;;4.43;;
24635;SDS011;12772;49.794;10.024;2023-03-11T19:08:00;4.65;;;3.70;;
24635;SDS011;12772;49.794;10.024;2023-03-11T19:12:02;4.53;;;3.78;;
24635;SDS011;12772;49.794;10.024;2023-03-11T19:16:05;4.55;;;3.75;;
24635;SDS011;12772;49.794;10.024;2023-03-11T19:20:09;5.55;;;3.47;;
24635;SDS011;12772;49.794;10.024;2023-03-11T19:24:12;4.10;;;3.67;;
24635;SDS011;12772;49.794;10.024;2023-03-11T19:28:15;5.40;;;4.07;;
24635;SDS011;12772;49.794;10.024;2023-03-11T19:32:17;4.65;;;3.70;;
24635;SDS011;12772;49.794;10.024;2023-03-11T19:36:19;4.55;;;3.78;;
24635;SDS011;12772;49.794;10.024;2023-03-11T19:40:22;6.40;;;4.50;;
24635;SDS011;12772;49.794;10.024;2023-03-11T19:44:24;6.60;;;4.75;;
24635;SDS011;12772;49.794;10.024;2023-03-11T19:48:27;6.18;;;4.63;;
24635;SDS011;12772;49.794;10.024;2023-03-11T19:52:30;6.07;;;4.45;;
24635;SDS011;12772;49.794;10.024;2023-03-11T19:56:34;5.88;;;4.57;;
24635;SDS011;12772;49.794;10.024;2023-03-11T20:00:36;6.60;;;4.53;;
24635;SDS011;12772;49.794;10.024;2023-03-11T20:04:39;6.53;;;4.85;;
24635;SDS011;12772;49.794;10.024;2023-03-11T20:08:41;9.07;;;6.22;;
24635;SDS011;12772;49.794;10.024;2023-03-11T20:12:43;8.13;;;5.60;;
24635;SDS011;12772;49.794;10.024;2023-03-11T20:16:45;7.68;;;6.57;;
24635;SDS011;12772;49.794;10.024;2023-03-11T20:20:48;9.23;;;6.65;;
24635;SDS011;12772;49.794;10.024;2023-03-11T20:24:50;8.25;;;6.40;;
24635;SDS011;12772;49.794;10.024;2023-03-11T20:28:55;10.18;;;7.85;;
24635;SDS011;12772;49.794;10.024;2023-03-11T20:32:57;7.45;;;5.90;;
24635;SDS011;12772;49.794;10.024;2023-03-11T20:36:59;5.43;;;4.90;;
24635;SDS011;12772;49.794;10.024;2023-03-11T20:41:01;4.95;;;4.28;;
24635;SDS011;12772;49.794;10.024;2023-03-11T20:45:05;4.95;;;4.10;;
24635;SDS011;12772;49.794;10.024;2023-03-11T20:49:08;3.40;;;3.10;;
24635;SDS011;12772;49.794;10.024;2023-03-11T20:53:10;3.47;;;2.58;;
24635;SDS011;12772;49.794;10.024;2023-03-11T20:57:12;6.38;;;4.13;;
24635;SDS011;12772;49.794;10.024;2023-03-11T21:01:33;3.35;;;3.05;;
24635;SDS011;12772;49.794;10.024;2023-03-11T21:05:36;5.38;;;3.90;;
24635;SDS011;12772;49.794;10.024;2023-03-11T21:09:38;6.40;;;4.50;;
24635;SDS011;12772;49.794;10.024;2023-03-11T21:13:40;6.85;;;5.70;;
24635;SDS011;12772;49.794;10.024;2023-03-11T21:17:42;8.38;;;5.63;;
24635;SDS011;12772;49.794;10.024;2023-03-11T21:21:44;7.93;;;6.63;;
24635;SDS011;12772;49.794;10.024;2023-03-11T21:25:46;8.75;;;6.22;;
24635;SDS011;12772;49.794;10.024;2023-03-11T21:29:48;7.80;;;6.30;;
24635;SDS011;12772;49.794;10.024;2023-03-11T21:33:51;9.02;;;6.43;;
24635;SDS011;12772;49.794;10.024;2023-03-11T21:37:55;10.27;;;6.40;;
24635;SDS011;12772;49.794;10.024;2023-03-11T21:41:57;16.70;;;9.80;;
24635;SDS011;12772;49.794;10.024;2023-03-11T21:45:59;22.70;;;11.68;;
24635;SDS011;12772;49.794;10.024;2023-03-11T21:50:01;22.45;;;11.60;;
24635;SDS011;12772;49.794;10.024;2023-03-11T21:54:04;24.80;;;12.60;;
24635;SDS011;12772;49.794;10.024;2023-03-11T21:58:06;33.63;;;16.98;;
24635;SDS011;12772;49.794;10.024;2023-03-11T22:02:11;30.35;;;14.95;;
24635;SDS011;12772;49.794;10.024;2023-03-11T22:06:15;38.72;;;18.45;;
24635;SDS011;12772;49.794;10.024;2023-03-11T22:10:17;34.80;;;16.83;;
24635;SDS011;12772;49.794;10.024;2023-03-11T22:14:19;29.02;;;13.77;;
24635;SDS011;12772;49.794;10.024;2023-03-11T22:18:21;25.00;;;12.77;;
24635;SDS011;12772;49.794;10.024;2023-03-11T22:22:23;21.75;;;10.82;;
24635;SDS011;12772;49.794;10.024;2023-03-11T22:26:26;23.42;;;11.57;;
24635;SDS011;12772;49.794;10.024;2023-03-11T22:30:28;18.40;;;9.70;;
24635;SDS011;12772;49.794;10.024;2023-03-11T22:34:31;27.88;;;13.15;;
24635;SDS011;12772;49.794;10.024;2023-03-11T22:38:33;17.73;;;10.43;;
24635;SDS011;12772;49.794;10.024;2023-03-11T22:42:36;12.43;;;8.07;;
24635;SDS011;12772;49.794;10.024;2023-03-11T22:46:38;9.13;;;6.75;;
24635;SDS011;12772;49.794;10.024;2023-03-11T22:50:41;8.48;;;6.10;;
24635;SDS011;12772;49.794;10.024;2023-03-11T22:54:44;10.57;;;5.80;;
24635;SDS011;12772;49.794;10.024;2023-03-11T22:58:46;9.05;;;6.03;;
24635;SDS011;12772;49.794;10.024;2023-03-11T23:02:51;6.78;;;6.03;;
24635;SDS011;12772;49.794;10.024;2023-03-11T23:06:55;8.35;;;6.00;;
24635;SDS011;12772;49.794;10.024;2023-03-11T23:11:00;9.30;;;5.85;;
24635;SDS011;12772;49.794;10.024;2023-03-11T23:15:08;10.18;;;6.47;;
24635;SDS011;12772;49.794;10.024;2023-03-11T23:19:12;6.10;;;5.50;;
24635;SDS011;12772;49.794;10.024;2023-03-11T23:23:15;8.95;;;5.32;;
24635;SDS011;12772;49.794;10.024;2023-03-11T23:27:17;4.68;;;4.15;;
24635;SDS011;12772;49.794;10.024;2023-03-11T23:31:20;7.00;;;4.63;;
24635;SDS011;12772;49.794;10.024;2023-03-11T23:35:24;8.30;;;5.22;;
24635;SDS011;12772;49.794;10.024;2023-03-11T23:39:26;4.60;;;4.20;;
24635;SDS011;12772;49.794;10.024;2023-03-11T23:43:29;8.07;;;5.45;;
24635;SDS011;12772;49.794;10.024;2023-03-11T23:47:31;8.17;;;4.77;;
24635;SDS011;12772;49.794;10.024;2023-03-11T23:51:33;6.03;;;5.00;;
24635;SDS011;12772;49.794;10.024;2023-03-11T23:55:36;7.13;;;5.07;;
24635;SDS011;12772;49.794;10.024;2023-03-11T23:59:42;6.25;;;4.63;;
